createdAt,value
2023-02-15T10:36:10.372Z,406.70
2023-02-15T10:37:11.574Z,460.00
2023-02-15T10:38:12.615Z,455.40
2023-02-15T10:39:12.684Z,466.10
2023-02-15T10:40:12.878Z,464.70
2023-02-15T10:41:12.884Z,449.60
2023-02-15T10:42:13.035Z,445.10
2023-02-15T10:43:12.972Z,430.70
2023-02-15T10:44:12.996Z,428.90
2023-02-15T10:45:13.027Z,418.50
2023-02-15T10:46:13.198Z,408.40
2023-02-15T10:47:13.314Z,410.90
2023-02-15T10:48:12.785Z,406.20
2023-02-15T10:49:12.295Z,404.40
2023-02-15T10:50:13.364Z,395.70
2023-02-15T10:51:13.454Z,395.00
2023-02-15T10:52:13.394Z,386.00
2023-02-15T10:53:13.410Z,383.10
2023-02-15T10:54:13.441Z,376.10
2023-02-15T10:55:13.495Z,378.20
2023-02-15T10:56:12.528Z,374.40
2023-02-15T10:57:12.593Z,363.20
2023-02-15T10:58:13.616Z,362.40
2023-02-15T10:59:13.551Z,364.60
2023-02-15T11:00:13.703Z,356.50
2023-02-15T11:01:13.604Z,353.00
2023-02-15T11:02:13.571Z,352.90
2023-02-15T11:03:12.634Z,342.90
2023-02-15T11:04:13.661Z,342.90
2023-02-15T11:05:13.678Z,337.50
2023-02-15T11:06:13.653Z,335.70
2023-02-15T11:07:13.667Z,335.00
2023-02-15T11:08:13.682Z,328.50
2023-02-15T11:09:12.768Z,325.20
2023-02-15T11:10:12.688Z,320.00
2023-02-15T11:11:13.738Z,320.30
2023-02-15T11:12:13.699Z,319.30
2023-02-15T11:13:13.726Z,313.90
2023-02-15T11:14:13.710Z,312.80
2023-02-15T11:15:12.712Z,313.30
2023-02-15T11:16:12.737Z,305.10
2023-02-15T11:17:48.216Z,294.70
2023-02-15T11:18:50.297Z,292.70
2023-02-15T11:19:50.302Z,290.90
2023-02-15T11:20:50.636Z,294.10
2023-02-15T11:21:50.674Z,294.00
2023-02-15T11:25:56.028Z,12.20
2023-02-15T11:34:31.601Z,25.20
2023-02-15T11:49:23.147Z,139.30
2023-02-15T11:58:32.999Z,210.60
2023-02-15T11:59:33.941Z,210.80
2023-02-15T12:00:35.035Z,212.90
2023-02-15T12:01:35.067Z,214.00
2023-02-15T12:02:35.177Z,210.90
2023-02-15T12:03:35.195Z,210.60
2023-02-15T12:04:35.370Z,214.90
2023-02-15T12:05:35.380Z,211.70
2023-02-15T12:06:35.469Z,209.50
2023-02-15T12:07:35.456Z,210.10
2023-02-15T12:08:35.671Z,208.40
2023-02-15T12:09:34.681Z,210.30
2023-02-15T12:10:34.676Z,199.70
2023-02-15T12:11:34.696Z,200.50
2023-02-15T12:12:35.807Z,200.50
2023-02-15T12:13:35.821Z,200.10
2023-02-15T12:14:35.822Z,205.60
2023-02-15T12:15:36.020Z,196.90
2023-02-15T12:16:36.069Z,205.70
2023-02-15T12:17:35.939Z,201.40
2023-02-15T12:18:34.980Z,213.00
2023-02-15T12:19:35.092Z,209.30
2023-02-15T12:20:36.172Z,210.90
2023-02-15T12:21:36.117Z,209.40
2023-02-15T12:22:36.161Z,215.90
2023-02-15T12:23:36.354Z,205.70
2023-02-15T12:24:36.401Z,210.30
2023-02-15T12:25:36.314Z,211.30
2023-02-15T12:26:35.293Z,214.10
2023-02-15T12:27:35.395Z,216.00
2023-02-15T12:28:38.334Z,217.90
2023-02-15T12:29:36.456Z,212.90
2023-02-15T12:30:36.525Z,215.20
2023-02-15T12:31:36.565Z,212.30
2023-02-15T12:32:36.562Z,215.50
2023-02-15T12:33:35.553Z,211.10
2023-02-15T12:34:35.584Z,213.10
2023-02-15T12:35:36.738Z,208.80
2023-02-15T12:36:36.608Z,210.30
2023-02-15T12:37:36.628Z,209.80
2023-02-15T12:38:36.717Z,212.30
2023-02-15T12:39:36.710Z,216.50
2023-02-15T12:40:35.730Z,213.30
2023-02-15T12:41:35.873Z,215.70
2023-02-15T12:51:11.352Z,9.60
2023-02-15T14:14:29.294Z,191.00
2023-02-15T14:15:30.390Z,306.70
2023-02-15T14:16:30.506Z,514.00
2023-02-15T14:17:30.690Z,338.50
2023-02-15T14:18:31.505Z,413.60
2023-02-15T14:19:30.827Z,482.60
2023-02-15T14:20:30.867Z,566.90
2023-02-15T14:21:32.016Z,507.10
2023-02-15T14:32:26.296Z,11.30
2023-02-15T14:41:12.278Z,11.30
2023-02-15T19:11:48.561Z,58.40
